sensor_id;sensor_type;location;lat;lon;timestamp;P1;durP1;ratioP1;P2;durP2;ratioP2
18738;SDS011;9498;51.862;19.460;2022-11-20T00:01:04;42.83;;;16.63;;
18738;SDS011;9498;51.862;19.460;2022-11-20T00:03:31;50.93;;;18.97;;
18738;SDS011;9498;51.862;19.460;2022-11-20T00:05:59;53.17;;;21.52;;
18738;SDS011;9498;51.862;19.460;2022-11-20T00:08:26;47.50;;;19.77;;
18738;SDS011;9498;51.862;19.460;2022-11-20T00:10:55;47.60;;;19.30;;
18738;SDS011;9498;51.862;19.460;2022-11-20T00:13:22;49.73;;;19.10;;
18738;SDS011;9498;51.862;19.460;2022-11-20T00:15:56;48.23;;;18.43;;
18738;SDS011;9498;51.862;19.460;2022-11-20T00:18:23;48.87;;;17.87;;
18738;SDS011;9498;51.862;19.460;2022-11-20T00:20:51;46.63;;;18.50;;
18738;SDS011;9498;51.862;19.460;2022-11-20T00:23:18;45.33;;;17.97;;
18738;SDS011;9498;51.862;19.460;2022-11-20T00:25:45;47.00;;;18.27;;
18738;SDS011;9498;51.862;19.460;2022-11-20T00:28:14;49.97;;;18.50;;
18738;SDS011;9498;51.862;19.460;2022-11-20T00:30:41;48.60;;;18.90;;
18738;SDS011;9498;51.862;19.460;2022-11-20T00:33:08;47.93;;;19.60;;
18738;SDS011;9498;51.862;19.460;2022-11-20T00:35:35;51.43;;;19.40;;
18738;SDS011;9498;51.862;19.460;2022-11-20T00:38:03;53.83;;;19.47;;
18738;SDS011;9498;51.862;19.460;2022-11-20T00:40:30;46.20;;;18.60;;
18738;SDS011;9498;51.862;19.460;2022-11-20T00:42:57;50.30;;;19.50;;
18738;SDS011;9498;51.862;19.460;2022-11-20T00:45:26;54.73;;;19.10;;
18738;SDS011;9498;51.862;19.460;2022-11-20T00:47:53;57.50;;;22.85;;
18738;SDS011;9498;51.862;19.460;2022-11-20T00:50:20;56.23;;;19.67;;
18738;SDS011;9498;51.862;19.460;2022-11-20T00:52:47;49.10;;;19.67;;
18738;SDS011;9498;51.862;19.460;2022-11-20T00:55:14;50.53;;;19.57;;
18738;SDS011;9498;51.862;19.460;2022-11-20T00:57:42;56.57;;;20.23;;
18738;SDS011;9498;51.862;19.460;2022-11-20T01:00:09;55.80;;;19.77;;
18738;SDS011;9498;51.862;19.460;2022-11-20T01:02:38;55.90;;;20.00;;
18738;SDS011;9498;51.862;19.460;2022-11-20T01:05:05;55.10;;;21.07;;
18738;SDS011;9498;51.862;19.460;2022-11-20T01:07:33;56.25;;;21.23;;
18738;SDS011;9498;51.862;19.460;2022-11-20T01:10:00;51.37;;;19.60;;
18738;SDS011;9498;51.862;19.460;2022-11-20T01:12:27;52.23;;;20.90;;
18738;SDS011;9498;51.862;19.460;2022-11-20T01:14:54;58.27;;;21.27;;
18738;SDS011;9498;51.862;19.460;2022-11-20T01:17:21;52.37;;;21.00;;
18738;SDS011;9498;51.862;19.460;2022-11-20T01:19:50;65.70;;;23.67;;
18738;SDS011;9498;51.862;19.460;2022-11-20T01:22:17;54.70;;;20.80;;
18738;SDS011;9498;51.862;19.460;2022-11-20T01:24:44;56.80;;;20.63;;
18738;SDS011;9498;51.862;19.460;2022-11-20T01:27:12;55.00;;;20.23;;
18738;SDS011;9498;51.862;19.460;2022-11-20T01:29:39;58.67;;;22.13;;
18738;SDS011;9498;51.862;19.460;2022-11-20T01:32:06;56.60;;;21.07;;
18738;SDS011;9498;51.862;19.460;2022-11-20T01:34:33;70.22;;;26.73;;
18738;SDS011;9498;51.862;19.460;2022-11-20T01:37:02;63.80;;;22.97;;
18738;SDS011;9498;51.862;19.460;2022-11-20T01:39:30;66.87;;;23.37;;
18738;SDS011;9498;51.862;19.460;2022-11-20T01:41:57;64.07;;;23.27;;
18738;SDS011;9498;51.862;19.460;2022-11-20T01:44:45;62.57;;;21.63;;
18738;SDS011;9498;51.862;19.460;2022-11-20T01:47:15;68.73;;;22.80;;
18738;SDS011;9498;51.862;19.460;2022-11-20T01:49:45;58.77;;;22.67;;
18738;SDS011;9498;51.862;19.460;2022-11-20T01:52:15;66.70;;;23.90;;
18738;SDS011;9498;51.862;19.460;2022-11-20T01:54:46;57.97;;;21.90;;
18738;SDS011;9498;51.862;19.460;2022-11-20T01:57:14;64.40;;;22.63;;
18738;SDS011;9498;51.862;19.460;2022-11-20T01:59:43;60.40;;;22.17;;
18738;SDS011;9498;51.862;19.460;2022-11-20T02:02:11;63.40;;;22.73;;
18738;SDS011;9498;51.862;19.460;2022-11-20T02:04:39;58.00;;;21.67;;
18738;SDS011;9498;51.862;19.460;2022-11-20T02:07:06;62.13;;;22.70;;
18738;SDS011;9498;51.862;19.460;2022-11-20T02:09:35;57.73;;;22.17;;
18738;SDS011;9498;51.862;19.460;2022-11-20T02:12:03;60.77;;;22.63;;
18738;SDS011;9498;51.862;19.460;2022-11-20T02:14:30;55.30;;;21.53;;
18738;SDS011;9498;51.862;19.460;2022-11-20T02:16:56;68.40;;;26.87;;
18738;SDS011;9498;51.862;19.460;2022-11-20T02:19:24;65.53;;;24.23;;
18738;SDS011;9498;51.862;19.460;2022-11-20T02:21:55;66.07;;;23.57;;
18738;SDS011;9498;51.862;19.460;2022-11-20T02:24:25;65.20;;;22.27;;
18738;SDS011;9498;51.862;19.460;2022-11-20T02:26:53;63.63;;;22.27;;
18738;SDS011;9498;51.862;19.460;2022-11-20T02:29:23;63.17;;;23.07;;
18738;SDS011;9498;51.862;19.460;2022-11-20T02:31:51;60.80;;;22.93;;
18738;SDS011;9498;51.862;19.460;2022-11-20T02:34:19;79.43;;;24.10;;
18738;SDS011;9498;51.862;19.460;2022-11-20T02:36:47;59.30;;;22.55;;
18738;SDS011;9498;51.862;19.460;2022-11-20T02:39:15;63.73;;;22.77;;
18738;SDS011;9498;51.862;19.460;2022-11-20T02:41:44;61.23;;;23.23;;
18738;SDS011;9498;51.862;19.460;2022-11-20T02:44:11;60.93;;;23.23;;
18738;SDS011;9498;51.862;19.460;2022-11-20T02:46:38;59.90;;;22.37;;
18738;SDS011;9498;51.862;19.460;2022-11-20T02:49:06;63.50;;;22.03;;
18738;SDS011;9498;51.862;19.460;2022-11-20T02:51:33;59.90;;;22.53;;
18738;SDS011;9498;51.862;19.460;2022-11-20T02:54:00;64.07;;;23.10;;
18738;SDS011;9498;51.862;19.460;2022-11-20T02:56:28;60.13;;;23.37;;
18738;SDS011;9498;51.862;19.460;2022-11-20T02:58:56;71.57;;;27.92;;
18738;SDS011;9498;51.862;19.460;2022-11-20T03:01:23;65.10;;;24.67;;
18738;SDS011;9498;51.862;19.460;2022-11-20T03:03:51;64.80;;;24.00;;
18738;SDS011;9498;51.862;19.460;2022-11-20T03:06:19;67.77;;;25.13;;
18738;SDS011;9498;51.862;19.460;2022-11-20T03:08:47;61.43;;;23.13;;
18738;SDS011;9498;51.862;19.460;2022-11-20T03:11:14;68.60;;;23.87;;
18738;SDS011;9498;51.862;19.460;2022-11-20T03:13:41;70.80;;;22.97;;
18738;SDS011;9498;51.862;19.460;2022-11-20T03:16:11;65.07;;;24.03;;
18738;SDS011;9498;51.862;19.460;2022-11-20T03:18:39;65.45;;;24.42;;
18738;SDS011;9498;51.862;19.460;2022-11-20T03:21:06;64.23;;;23.07;;
18738;SDS011;9498;51.862;19.460;2022-11-20T03:23:34;65.13;;;22.83;;
18738;SDS011;9498;51.862;19.460;2022-11-20T03:26:11;61.70;;;23.20;;
18738;SDS011;9498;51.862;19.460;2022-11-20T03:28:39;62.20;;;21.80;;
18738;SDS011;9498;51.862;19.460;2022-11-20T03:31:07;65.53;;;24.17;;
18738;SDS011;9498;51.862;19.460;2022-11-20T03:33:36;60.97;;;22.43;;
18738;SDS011;9498;51.862;19.460;2022-11-20T03:36:04;56.90;;;21.13;;
18738;SDS011;9498;51.862;19.460;2022-11-20T03:38:32;63.03;;;22.23;;
18738;SDS011;9498;51.862;19.460;2022-11-20T03:41:00;68.55;;;27.75;;
18738;SDS011;9498;51.862;19.460;2022-11-20T03:43:28;66.90;;;23.97;;
18738;SDS011;9498;51.862;19.460;2022-11-20T03:45:55;60.60;;;23.20;;
18738;SDS011;9498;51.862;19.460;2022-11-20T03:48:23;67.07;;;23.33;;
18738;SDS011;9498;51.862;19.460;2022-11-20T03:50:52;65.33;;;23.97;;
18738;SDS011;9498;51.862;19.460;2022-11-20T03:53:19;66.23;;;25.00;;
18738;SDS011;9498;51.862;19.460;2022-11-20T03:55:50;69.33;;;23.13;;
18738;SDS011;9498;51.862;19.460;2022-11-20T03:58:17;69.73;;;25.20;;
18738;SDS011;9498;51.862;19.460;2022-11-20T04:00:45;67.80;;;26.63;;
18738;SDS011;9498;51.862;19.460;2022-11-20T04:03:12;65.60;;;24.00;;
18738;SDS011;9498;51.862;19.460;2022-11-20T04:05:39;63.20;;;24.27;;
18738;SDS011;9498;51.862;19.460;2022-11-20T04:08:08;68.97;;;25.03;;
18738;SDS011;9498;51.862;19.460;2022-11-20T04:10:35;63.20;;;25.23;;
18738;SDS011;9498;51.862;19.460;2022-11-20T04:13:02;71.50;;;24.47;;
18738;SDS011;9498;51.862;19.460;2022-11-20T04:15:30;63.30;;;22.87;;
18738;SDS011;9498;51.862;19.460;2022-11-20T04:17:57;65.57;;;24.47;;
18738;SDS011;9498;51.862;19.460;2022-11-20T04:20:24;66.93;;;24.20;;
18738;SDS011;9498;51.862;19.460;2022-11-20T04:22:52;83.20;;;31.23;;
18738;SDS011;9498;51.862;19.460;2022-11-20T04:25:22;71.27;;;28.30;;
18738;SDS011;9498;51.862;19.460;2022-11-20T04:27:49;74.70;;;27.30;;
18738;SDS011;9498;51.862;19.460;2022-11-20T04:30:16;70.63;;;26.87;;
18738;SDS011;9498;51.862;19.460;2022-11-20T04:32:43;74.03;;;25.20;;
18738;SDS011;9498;51.862;19.460;2022-11-20T04:35:10;74.00;;;25.63;;
18738;SDS011;9498;51.862;19.460;2022-11-20T04:37:38;86.57;;;28.30;;
18738;SDS011;9498;51.862;19.460;2022-11-20T04:40:05;72.03;;;25.13;;
18738;SDS011;9498;51.862;19.460;2022-11-20T04:42:34;76.87;;;25.67;;
18738;SDS011;9498;51.862;19.460;2022-11-20T04:45:01;69.07;;;25.37;;
18738;SDS011;9498;51.862;19.460;2022-11-20T04:47:28;78.93;;;27.73;;
18738;SDS011;9498;51.862;19.460;2022-11-20T04:49:55;74.17;;;25.97;;
18738;SDS011;9498;51.862;19.460;2022-11-20T04:52:23;76.67;;;27.27;;
18738;SDS011;9498;51.862;19.460;2022-11-20T04:54:50;79.50;;;27.37;;
18738;SDS011;9498;51.862;19.460;2022-11-20T04:57:18;75.53;;;28.13;;
18738;SDS011;9498;51.862;19.460;2022-11-20T04:59:47;81.67;;;28.03;;
18738;SDS011;9498;51.862;19.460;2022-11-20T05:02:14;79.10;;;27.67;;
18738;SDS011;9498;51.862;19.460;2022-11-20T05:04:41;76.10;;;27.43;;
18738;SDS011;9498;51.862;19.460;2022-11-20T05:07:08;86.03;;;33.70;;
18738;SDS011;9498;51.862;19.460;2022-11-20T05:09:35;91.17;;;30.67;;
18738;SDS011;9498;51.862;19.460;2022-11-20T05:12:03;74.30;;;26.83;;
18738;SDS011;9498;51.862;19.460;2022-11-20T05:14:30;76.13;;;26.90;;
18738;SDS011;9498;51.862;19.460;2022-11-20T05:16:59;68.83;;;25.33;;
18738;SDS011;9498;51.862;19.460;2022-11-20T05:19:26;74.87;;;28.23;;
18738;SDS011;9498;51.862;19.460;2022-11-20T05:21:53;76.10;;;26.50;;
18738;SDS011;9498;51.862;19.460;2022-11-20T05:24:20;76.10;;;27.33;;
18738;SDS011;9498;51.862;19.460;2022-11-20T05:26:48;85.72;;;31.98;;
18738;SDS011;9498;51.862;19.460;2022-11-20T05:29:15;78.53;;;28.37;;
18738;SDS011;9498;51.862;19.460;2022-11-20T05:31:42;77.63;;;26.00;;
18738;SDS011;9498;51.862;19.460;2022-11-20T05:34:11;77.87;;;27.50;;
18738;SDS011;9498;51.862;19.460;2022-11-20T05:36:38;76.47;;;27.13;;
18738;SDS011;9498;51.862;19.460;2022-11-20T05:39:05;79.10;;;28.30;;
18738;SDS011;9498;51.862;19.460;2022-11-20T05:41:33;74.03;;;26.90;;
18738;SDS011;9498;51.862;19.460;2022-11-20T05:44:00;73.83;;;26.80;;
18738;SDS011;9498;51.862;19.460;2022-11-20T05:46:27;80.33;;;28.43;;
18738;SDS011;9498;51.862;19.460;2022-11-20T05:48:55;94.03;;;35.00;;
18738;SDS011;9498;51.862;19.460;2022-11-20T05:51:24;83.97;;;29.50;;
18738;SDS011;9498;51.862;19.460;2022-11-20T05:53:51;76.23;;;26.97;;
18738;SDS011;9498;51.862;19.460;2022-11-20T05:56:19;73.47;;;27.67;;
18738;SDS011;9498;51.862;19.460;2022-11-20T05:58:47;71.67;;;26.73;;
18738;SDS011;9498;51.862;19.460;2022-11-20T06:01:16;76.47;;;27.90;;
18738;SDS011;9498;51.862;19.460;2022-11-20T06:03:44;77.13;;;28.10;;
18738;SDS011;9498;51.862;19.460;2022-11-20T06:06:13;82.93;;;28.80;;
18738;SDS011;9498;51.862;19.460;2022-11-20T06:08:42;78.93;;;27.77;;
18738;SDS011;9498;51.862;19.460;2022-11-20T06:11:10;83.27;;;28.30;;
18738;SDS011;9498;51.862;19.460;2022-11-20T06:13:38;82.67;;;29.40;;
18738;SDS011;9498;51.862;19.460;2022-11-20T06:16:05;84.87;;;28.70;;
18738;SDS011;9498;51.862;19.460;2022-11-20T06:18:33;87.73;;;30.40;;
18738;SDS011;9498;51.862;19.460;2022-11-20T06:21:00;75.83;;;27.77;;
18738;SDS011;9498;51.862;19.460;2022-11-20T06:23:28;84.17;;;28.87;;
18738;SDS011;9498;51.862;19.460;2022-11-20T06:25:57;84.00;;;30.10;;
18738;SDS011;9498;51.862;19.460;2022-11-20T06:28:24;85.10;;;30.80;;
18738;SDS011;9498;51.862;19.460;2022-11-20T06:30:52;89.10;;;28.60;;
18738;SDS011;9498;51.862;19.460;2022-11-20T06:33:19;87.47;;;29.67;;
18738;SDS011;9498;51.862;19.460;2022-11-20T06:35:46;75.20;;;29.33;;
18738;SDS011;9498;51.862;19.460;2022-11-20T06:38:14;86.93;;;31.07;;
18738;SDS011;9498;51.862;19.460;2022-11-20T06:40:41;90.97;;;31.60;;
18738;SDS011;9498;51.862;19.460;2022-11-20T06:43:10;89.43;;;30.43;;
18738;SDS011;9498;51.862;19.460;2022-11-20T06:45:37;88.60;;;30.47;;
18738;SDS011;9498;51.862;19.460;2022-11-20T06:48:04;86.67;;;32.13;;
18738;SDS011;9498;51.862;19.460;2022-11-20T06:50:31;86.70;;;29.90;;
18738;SDS011;9498;51.862;19.460;2022-11-20T06:53:00;78.07;;;29.30;;
18738;SDS011;9498;51.862;19.460;2022-11-20T06:55:28;88.50;;;31.87;;
18738;SDS011;9498;51.862;19.460;2022-11-20T06:57:55;95.00;;;32.07;;
18738;SDS011;9498;51.862;19.460;2022-11-20T07:00:24;91.37;;;31.93;;
18738;SDS011;9498;51.862;19.460;2022-11-20T07:02:51;87.33;;;30.77;;
18738;SDS011;9498;51.862;19.460;2022-11-20T07:05:18;85.87;;;30.43;;
18738;SDS011;9498;51.862;19.460;2022-11-20T07:07:46;79.80;;;30.13;;
18738;SDS011;9498;51.862;19.460;2022-11-20T07:10:13;91.17;;;31.43;;
18738;SDS011;9498;51.862;19.460;2022-11-20T07:12:41;89.67;;;31.63;;
18738;SDS011;9498;51.862;19.460;2022-11-20T07:15:08;90.80;;;33.27;;
18738;SDS011;9498;51.862;19.460;2022-11-20T07:17:37;89.23;;;31.73;;
18738;SDS011;9498;51.862;19.460;2022-11-20T07:20:04;95.90;;;32.80;;
18738;SDS011;9498;51.862;19.460;2022-11-20T07:22:32;89.97;;;32.47;;
18738;SDS011;9498;51.862;19.460;2022-11-20T07:24:59;80.27;;;29.97;;
18738;SDS011;9498;51.862;19.460;2022-11-20T07:27:26;87.30;;;30.73;;
18738;SDS011;9498;51.862;19.460;2022-11-20T07:29:54;87.63;;;32.17;;
18738;SDS011;9498;51.862;19.460;2022-11-20T07:32:22;87.37;;;31.50;;
18738;SDS011;9498;51.862;19.460;2022-11-20T07:34:51;75.63;;;28.30;;
18738;SDS011;9498;51.862;19.460;2022-11-20T07:37:18;85.97;;;31.10;;
18738;SDS011;9498;51.862;19.460;2022-11-20T07:39:45;82.63;;;29.93;;
18738;SDS011;9498;51.862;19.460;2022-11-20T07:42:12;75.53;;;28.43;;
18738;SDS011;9498;51.862;19.460;2022-11-20T07:44:40;84.40;;;30.17;;
18738;SDS011;9498;51.862;19.460;2022-11-20T07:47:07;80.97;;;28.83;;
18738;SDS011;9498;51.862;19.460;2022-11-20T07:49:34;84.97;;;28.97;;
18738;SDS011;9498;51.862;19.460;2022-11-20T07:52:03;82.10;;;29.90;;
18738;SDS011;9498;51.862;19.460;2022-11-20T07:54:30;82.43;;;28.37;;
18738;SDS011;9498;51.862;19.460;2022-11-20T07:56:57;80.03;;;29.43;;
18738;SDS011;9498;51.862;19.460;2022-11-20T07:59:24;78.80;;;28.40;;
18738;SDS011;9498;51.862;19.460;2022-11-20T08:01:52;75.30;;;27.85;;
18738;SDS011;9498;51.862;19.460;2022-11-20T08:04:19;82.78;;;32.10;;
18738;SDS011;9498;51.862;19.460;2022-11-20T08:06:46;72.63;;;29.10;;
18738;SDS011;9498;51.862;19.460;2022-11-20T08:09:15;78.17;;;30.07;;
18738;SDS011;9498;51.862;19.460;2022-11-20T08:11:42;71.43;;;26.90;;
18738;SDS011;9498;51.862;19.460;2022-11-20T08:14:27;75.33;;;27.07;;
18738;SDS011;9498;51.862;19.460;2022-11-20T08:16:54;75.77;;;27.10;;
18738;SDS011;9498;51.862;19.460;2022-11-20T08:19:21;78.03;;;28.07;;
18738;SDS011;9498;51.862;19.460;2022-11-20T08:21:49;70.80;;;26.77;;
18738;SDS011;9498;51.862;19.460;2022-11-20T08:24:17;73.70;;;26.67;;
18738;SDS011;9498;51.862;19.460;2022-11-20T08:26:44;67.87;;;24.90;;
18738;SDS011;9498;51.862;19.460;2022-11-20T08:29:12;76.00;;;26.97;;
18738;SDS011;9498;51.862;19.460;2022-11-20T08:31:39;72.97;;;25.97;;
18738;SDS011;9498;51.862;19.460;2022-11-20T08:34:06;75.23;;;27.30;;
18738;SDS011;9498;51.862;19.460;2022-11-20T08:36:33;68.07;;;25.67;;
18738;SDS011;9498;51.862;19.460;2022-11-20T08:39:01;70.60;;;25.33;;
18738;SDS011;9498;51.862;19.460;2022-11-20T08:41:30;68.30;;;24.37;;
18738;SDS011;9498;51.862;19.460;2022-11-20T08:43:58;57.10;;;21.27;;
18738;SDS011;9498;51.862;19.460;2022-11-20T08:46:27;68.77;;;23.63;;
18738;SDS011;9498;51.862;19.460;2022-11-20T08:48:54;56.00;;;22.70;;
18738;SDS011;9498;51.862;19.460;2022-11-20T08:51:22;53.37;;;21.23;;
18738;SDS011;9498;51.862;19.460;2022-11-20T08:53:50;56.73;;;21.80;;
18738;SDS011;9498;51.862;19.460;2022-11-20T08:56:17;64.70;;;22.87;;
18738;SDS011;9498;51.862;19.460;2022-11-20T08:58:46;55.17;;;20.93;;
18738;SDS011;9498;51.862;19.460;2022-11-20T09:01:13;51.33;;;20.00;;
18738;SDS011;9498;51.862;19.460;2022-11-20T09:03:40;54.83;;;19.93;;
18738;SDS011;9498;51.862;19.460;2022-11-20T09:06:07;62.63;;;22.07;;
18738;SDS011;9498;51.862;19.460;2022-11-20T09:08:35;57.97;;;21.13;;
18738;SDS011;9498;51.862;19.460;2022-11-20T09:11:02;60.60;;;22.03;;
18738;SDS011;9498;51.862;19.460;2022-11-20T09:13:30;58.93;;;22.07;;
18738;SDS011;9498;51.862;19.460;2022-11-20T09:16:00;63.77;;;21.97;;
18738;SDS011;9498;51.862;19.460;2022-11-20T09:18:27;63.43;;;22.13;;
18738;SDS011;9498;51.862;19.460;2022-11-20T09:20:56;62.07;;;21.93;;
18738;SDS011;9498;51.862;19.460;2022-11-20T09:23:24;58.60;;;21.53;;
18738;SDS011;9498;51.862;19.460;2022-11-20T09:25:51;55.87;;;20.80;;
18738;SDS011;9498;51.862;19.460;2022-11-20T09:28:20;54.50;;;19.53;;
18738;SDS011;9498;51.862;19.460;2022-11-20T09:30:47;52.43;;;21.10;;
18738;SDS011;9498;51.862;19.460;2022-11-20T09:33:16;51.37;;;20.77;;
18738;SDS011;9498;51.862;19.460;2022-11-20T09:35:44;62.70;;;22.27;;
18738;SDS011;9498;51.862;19.460;2022-11-20T09:38:11;52.10;;;20.17;;
18738;SDS011;9498;51.862;19.460;2022-11-20T09:40:39;59.47;;;22.07;;
18738;SDS011;9498;51.862;19.460;2022-11-20T09:43:09;60.67;;;20.33;;
18738;SDS011;9498;51.862;19.460;2022-11-20T09:45:39;52.17;;;18.57;;
18738;SDS011;9498;51.862;19.460;2022-11-20T09:48:15;51.90;;;18.30;;
18738;SDS011;9498;51.862;19.460;2022-11-20T09:50:47;54.03;;;19.90;;
18738;SDS011;9498;51.862;19.460;2022-11-20T09:53:19;47.93;;;19.30;;
18738;SDS011;9498;51.862;19.460;2022-11-20T09:55:48;52.47;;;19.10;;
18738;SDS011;9498;51.862;19.460;2022-11-20T09:58:17;48.30;;;19.10;;
18738;SDS011;9498;51.862;19.460;2022-11-20T10:00:46;47.30;;;18.13;;
18738;SDS011;9498;51.862;19.460;2022-11-20T10:03:16;46.17;;;17.97;;
18738;SDS011;9498;51.862;19.460;2022-11-20T10:05:44;43.93;;;17.53;;
18738;SDS011;9498;51.862;19.460;2022-11-20T10:08:16;48.67;;;17.93;;
18738;SDS011;9498;51.862;19.460;2022-11-20T10:10:44;49.53;;;17.93;;
18738;SDS011;9498;51.862;19.460;2022-11-20T10:13:29;48.80;;;17.57;;
18738;SDS011;9498;51.862;19.460;2022-11-20T10:16:02;50.80;;;17.00;;
18738;SDS011;9498;51.862;19.460;2022-11-20T10:18:34;46.63;;;16.13;;
18738;SDS011;9498;51.862;19.460;2022-11-20T10:21:05;40.37;;;15.60;;
18738;SDS011;9498;51.862;19.460;2022-11-20T10:23:43;36.97;;;14.83;;
18738;SDS011;9498;51.862;19.460;2022-11-20T10:26:16;35.93;;;14.47;;
18738;SDS011;9498;51.862;19.460;2022-11-20T10:28:46;38.37;;;15.43;;
18738;SDS011;9498;51.862;19.460;2022-11-20T10:31:19;40.30;;;14.30;;
18738;SDS011;9498;51.862;19.460;2022-11-20T10:33:52;36.73;;;14.33;;
18738;SDS011;9498;51.862;19.460;2022-11-20T10:36:21;38.47;;;14.63;;
18738;SDS011;9498;51.862;19.460;2022-11-20T10:38:53;39.77;;;15.47;;
18738;SDS011;9498;51.862;19.460;2022-11-20T10:41:23;32.77;;;13.20;;
18738;SDS011;9498;51.862;19.460;2022-11-20T10:43:52;36.27;;;13.30;;
18738;SDS011;9498;51.862;19.460;2022-11-20T10:46:21;34.80;;;13.63;;
18738;SDS011;9498;51.862;19.460;2022-11-20T10:48:48;34.93;;;13.73;;
18738;SDS011;9498;51.862;19.460;2022-11-20T10:51:18;35.27;;;12.67;;
18738;SDS011;9498;51.862;19.460;2022-11-20T10:53:55;27.83;;;11.67;;
18738;SDS011;9498;51.862;19.460;2022-11-20T10:56:25;36.63;;;13.90;;
18738;SDS011;9498;51.862;19.460;2022-11-20T10:59:10;33.03;;;12.77;;
18738;SDS011;9498;51.862;19.460;2022-11-20T11:01:39;33.40;;;13.17;;
18738;SDS011;9498;51.862;19.460;2022-11-20T11:04:13;34.80;;;12.07;;
18738;SDS011;9498;51.862;19.460;2022-11-20T11:06:46;35.00;;;14.23;;
18738;SDS011;9498;51.862;19.460;2022-11-20T11:09:17;36.50;;;14.63;;
18738;SDS011;9498;51.862;19.460;2022-11-20T11:11:45;34.23;;;13.03;;
18738;SDS011;9498;51.862;19.460;2022-11-20T11:14:13;33.23;;;12.90;;
18738;SDS011;9498;51.862;19.460;2022-11-20T11:16:48;32.90;;;13.07;;
18738;SDS011;9498;51.862;19.460;2022-11-20T11:19:16;32.37;;;12.63;;
18738;SDS011;9498;51.862;19.460;2022-11-20T11:21:45;39.00;;;15.23;;
18738;SDS011;9498;51.862;19.460;2022-11-20T11:24:20;35.73;;;14.57;;
18738;SDS011;9498;51.862;19.460;2022-11-20T11:26:55;35.60;;;14.00;;
18738;SDS011;9498;51.862;19.460;2022-11-20T11:29:23;41.50;;;15.77;;
18738;SDS011;9498;51.862;19.460;2022-11-20T11:32:02;35.97;;;13.77;;
18738;SDS011;9498;51.862;19.460;2022-11-20T11:34:29;38.73;;;14.73;;
18738;SDS011;9498;51.862;19.460;2022-11-20T11:36:57;38.47;;;13.80;;
18738;SDS011;9498;51.862;19.460;2022-11-20T11:39:27;32.17;;;14.00;;
18738;SDS011;9498;51.862;19.460;2022-11-20T11:41:54;45.20;;;15.93;;
18738;SDS011;9498;51.862;19.460;2022-11-20T11:44:22;39.03;;;14.83;;
18738;SDS011;9498;51.862;19.460;2022-11-20T11:47:09;31.70;;;13.83;;
18738;SDS011;9498;51.862;19.460;2022-11-20T11:49:37;36.17;;;13.90;;
18738;SDS011;9498;51.862;19.460;2022-11-20T11:52:08;33.07;;;14.07;;
18738;SDS011;9498;51.862;19.460;2022-11-20T11:54:41;35.47;;;14.53;;
18738;SDS011;9498;51.862;19.460;2022-11-20T11:57:11;32.07;;;13.23;;
18738;SDS011;9498;51.862;19.460;2022-11-20T11:59:41;37.50;;;14.63;;
18738;SDS011;9498;51.862;19.460;2022-11-20T12:02:15;29.00;;;12.70;;
18738;SDS011;9498;51.862;19.460;2022-11-20T12:04:43;34.37;;;13.93;;
18738;SDS011;9498;51.862;19.460;2022-11-20T12:07:12;37.07;;;14.50;;
18738;SDS011;9498;51.862;19.460;2022-11-20T12:09:43;38.17;;;15.13;;
18738;SDS011;9498;51.862;19.460;2022-11-20T12:12:14;38.00;;;15.67;;
18738;SDS011;9498;51.862;19.460;2022-11-20T12:14:45;44.00;;;16.37;;
18738;SDS011;9498;51.862;19.460;2022-11-20T12:17:14;39.30;;;15.30;;
18738;SDS011;9498;51.862;19.460;2022-11-20T12:19:41;41.80;;;15.00;;
18738;SDS011;9498;51.862;19.460;2022-11-20T12:22:11;46.53;;;16.40;;
18738;SDS011;9498;51.862;19.460;2022-11-20T12:24:46;40.20;;;16.87;;
18738;SDS011;9498;51.862;19.460;2022-11-20T12:27:24;41.87;;;17.47;;
18738;SDS011;9498;51.862;19.460;2022-11-20T12:30:00;44.53;;;16.60;;
18738;SDS011;9498;51.862;19.460;2022-11-20T12:32:36;52.00;;;20.90;;
18738;SDS011;9498;51.862;19.460;2022-11-20T12:35:10;52.20;;;18.67;;
18738;SDS011;9498;51.862;19.460;2022-11-20T12:37:42;46.50;;;18.00;;
18738;SDS011;9498;51.862;19.460;2022-11-20T12:40:17;41.83;;;17.50;;
18738;SDS011;9498;51.862;19.460;2022-11-20T12:42:53;39.23;;;17.07;;
18738;SDS011;9498;51.862;19.460;2022-11-20T12:45:56;44.20;;;17.67;;
18738;SDS011;9498;51.862;19.460;2022-11-20T12:48:36;53.73;;;19.47;;
18738;SDS011;9498;51.862;19.460;2022-11-20T12:51:23;54.27;;;19.53;;
18738;SDS011;9498;51.862;19.460;2022-11-20T12:53:55;72.23;;;28.97;;
18738;SDS011;9498;51.862;19.460;2022-11-20T12:56:28;42.70;;;18.80;;
18738;SDS011;9498;51.862;19.460;2022-11-20T12:59:01;49.07;;;21.40;;
18738;SDS011;9498;51.862;19.460;2022-11-20T13:01:32;44.93;;;19.10;;
18738;SDS011;9498;51.862;19.460;2022-11-20T13:04:27;42.27;;;18.07;;
18738;SDS011;9498;51.862;19.460;2022-11-20T13:06:58;41.77;;;18.17;;
18738;SDS011;9498;51.862;19.460;2022-11-20T13:09:25;48.17;;;18.07;;
18738;SDS011;9498;51.862;19.460;2022-11-20T13:11:57;45.27;;;19.03;;
18738;SDS011;9498;51.862;19.460;2022-11-20T13:14:30;47.67;;;19.50;;
18738;SDS011;9498;51.862;19.460;2022-11-20T13:17:00;60.30;;;22.17;;
18738;SDS011;9498;51.862;19.460;2022-11-20T13:19:32;49.77;;;19.77;;
18738;SDS011;9498;51.862;19.460;2022-11-20T13:22:00;45.63;;;18.77;;
18738;SDS011;9498;51.862;19.460;2022-11-20T13:24:27;50.87;;;19.43;;
18738;SDS011;9498;51.862;19.460;2022-11-20T13:29:46;52.13;;;21.93;;
18738;SDS011;9498;51.862;19.460;2022-11-20T13:32:14;51.73;;;19.47;;
18738;SDS011;9498;51.862;19.460;2022-11-20T13:34:50;51.00;;;19.50;;
18738;SDS011;9498;51.862;19.460;2022-11-20T13:37:24;55.00;;;20.60;;
18738;SDS011;9498;51.862;19.460;2022-11-20T13:39:52;54.30;;;21.53;;
18738;SDS011;9498;51.862;19.460;2022-11-20T13:42:20;54.87;;;21.90;;
18738;SDS011;9498;51.862;19.460;2022-11-20T13:44:53;63.53;;;25.00;;
18738;SDS011;9498;51.862;19.460;2022-11-20T13:47:21;56.93;;;22.77;;
18738;SDS011;9498;51.862;19.460;2022-11-20T13:49:49;59.13;;;23.00;;
18738;SDS011;9498;51.862;19.460;2022-11-20T13:52:29;60.77;;;22.90;;
18738;SDS011;9498;51.862;19.460;2022-11-20T13:57:52;59.90;;;23.20;;
18738;SDS011;9498;51.862;19.460;2022-11-20T14:00:25;54.93;;;22.57;;
18738;SDS011;9498;51.862;19.460;2022-11-20T14:02:58;68.27;;;25.27;;
18738;SDS011;9498;51.862;19.460;2022-11-20T14:05:26;80.03;;;25.80;;
18738;SDS011;9498;51.862;19.460;2022-11-20T14:07:54;52.17;;;19.57;;
18738;SDS011;9498;51.862;19.460;2022-11-20T14:10:22;50.77;;;19.47;;
18738;SDS011;9498;51.862;19.460;2022-11-20T14:12:50;55.83;;;21.83;;
18738;SDS011;9498;51.862;19.460;2022-11-20T14:15:29;51.33;;;19.80;;
18738;SDS011;9498;51.862;19.460;2022-11-20T14:17:56;47.57;;;19.50;;
18738;SDS011;9498;51.862;19.460;2022-11-20T14:20:24;55.23;;;20.73;;
18738;SDS011;9498;51.862;19.460;2022-11-20T14:22:53;65.43;;;23.83;;
18738;SDS011;9498;51.862;19.460;2022-11-20T14:25:20;63.67;;;25.23;;
18738;SDS011;9498;51.862;19.460;2022-11-20T14:27:52;128.37;;;39.57;;
18738;SDS011;9498;51.862;19.460;2022-11-20T14:30:20;123.10;;;37.23;;
18738;SDS011;9498;51.862;19.460;2022-11-20T14:32:49;83.90;;;29.20;;
18738;SDS011;9498;51.862;19.460;2022-11-20T14:35:18;70.23;;;26.97;;
18738;SDS011;9498;51.862;19.460;2022-11-20T14:37:47;69.63;;;26.33;;